Time;durP1;ratioP1;P1;durP2;ratioP2;P2;SDS_P1;SDS_P2;PMS_P1;PMS_P2;Temp;Humidity;BMP_temperature;BMP_pressure;BME280_temperature;BME280_humidity;BME280_pressure;Samples;Min_cycle;Max_cycle;Signal;HPM_P1;HPM_P2
2021/10/15 00:02:09;;;;;;;7.30;4.43;;;11.70;99.90;;;;;;5073478;28;20163;-77
2021/10/15 00:04:35;;;;;;;6.70;4.68;;;11.80;99.90;;;;;;5071978;28;20649;-78
2021/10/15 00:07:00;;;;;;;10.48;4.82;;;11.90;99.90;;;;;;5073738;28;20543;-77
2021/10/15 00:09:26;;;;;;;9.18;5.32;;;12.00;99.90;;;;;;5072795;28;20661;-78
2021/10/15 00:11:51;;;;;;;12.93;5.07;;;11.80;99.90;;;;;;5072873;28;20162;-77
2021/10/15 00:14:17;;;;;;;8.50;4.30;;;11.80;99.90;;;;;;5073807;28;20175;-77
2021/10/15 00:16:43;;;;;;;14.10;5.18;;;11.90;99.90;;;;;;5073296;28;20246;-77
2021/10/15 00:19:08;;;;;;;4.97;4.43;;;11.80;99.90;;;;;;5072824;28;20638;-77
2021/10/15 00:21:34;;;;;;;9.70;4.72;;;11.80;99.90;;;;;;5073079;28;20237;-77
2021/10/15 00:23:59;;;;;;;11.55;5.55;;;11.80;99.90;;;;;;5073456;28;20171;-77
2021/10/15 00:26:25;;;;;;;5.97;5.22;;;11.70;99.90;;;;;;5073633;28;20174;-77
2021/10/15 00:28:51;;;;;;;16.27;5.68;;;11.60;99.90;;;;;;5073183;28;20224;-77
2021/10/15 00:31:17;;;;;;;17.55;5.10;;;11.50;99.90;;;;;;5073586;28;20543;-77
2021/10/15 00:33:42;;;;;;;9.88;4.95;;;11.70;99.90;;;;;;5073704;28;20300;-77
2021/10/15 00:36:08;;;;;;;14.27;5.03;;;12.00;99.90;;;;;;5073525;28;20173;-77
2021/10/15 00:38:34;;;;;;;10.25;4.57;;;12.00;99.90;;;;;;5073199;28;20638;-77
2021/10/15 00:40:59;;;;;;;5.15;4.68;;;11.90;99.90;;;;;;5073144;28;20177;-79
2021/10/15 00:43:25;;;;;;;12.45;5.68;;;11.90;99.90;;;;;;5072267;28;20257;-78
2021/10/15 00:45:51;;;;;;;5.38;4.88;;;12.00;99.90;;;;;;5072838;28;20245;-77
2021/10/15 00:48:17;;;;;;;8.25;4.95;;;12.10;99.90;;;;;;5071257;28;20285;-78
2021/10/15 00:50:45;;;;;;;10.13;4.32;;;12.00;99.90;;;;;;5072945;28;20580;-77
2021/10/15 00:53:11;;;;;;;9.35;4.10;;;11.90;99.90;;;;;;5072456;28;20177;-78
2021/10/15 00:55:37;;;;;;;5.20;4.72;;;12.10;99.90;;;;;;5073815;28;20167;-77
2021/10/15 00:58:03;;;;;;;19.73;5.35;;;11.80;99.90;;;;;;5072140;28;20186;-77
2021/10/15 01:00:29;;;;;;;6.15;5.18;;;12.00;99.90;;;;;;5073144;28;20626;-78
2021/10/15 01:02:55;;;;;;;9.63;4.50;;;12.10;99.90;;;;;;5071939;28;20174;-78
2021/10/15 01:05:22;;;;;;;13.68;5.03;;;12.20;99.90;;;;;;5072181;28;20209;-77
2021/10/15 01:07:49;;;;;;;5.43;4.93;;;12.30;99.90;;;;;;5073516;28;20646;-78
2021/10/15 01:10:16;;;;;;;12.07;5.38;;;12.30;99.90;;;;;;5075521;28;20698;-78
2021/10/15 01:12:43;;;;;;;8.35;5.22;;;12.20;99.90;;;;;;5074911;28;20163;-80
2021/10/15 01:15:09;;;;;;;6.47;5.00;;;12.30;99.90;;;;;;5075165;28;20532;-81
2021/10/15 01:17:35;;;;;;;10.13;5.43;;;12.20;99.90;;;;;;5078027;28;20193;-77
2021/10/15 01:20:00;;;;;;;7.55;5.03;;;12.20;99.90;;;;;;5079163;28;20487;-78
2021/10/15 01:22:28;;;;;;;16.05;5.70;;;12.20;99.90;;;;;;5078325;28;20660;-78
2021/10/15 01:24:55;;;;;;;10.13;4.90;;;12.30;99.90;;;;;;5078106;28;20223;-79
2021/10/15 01:27:21;;;;;;;5.80;4.88;;;12.40;99.90;;;;;;5078548;28;20289;-78
2021/10/15 01:29:47;;;;;;;13.70;5.18;;;12.40;99.90;;;;;;5078064;28;20288;-78
2021/10/15 01:32:15;;;;;;;8.68;5.22;;;12.50;99.90;;;;;;5078529;28;20163;-80
2021/10/15 01:34:41;;;;;;;7.03;5.20;;;12.60;99.90;;;;;;5078358;28;20177;-78
2021/10/15 01:37:07;;;;;;;9.23;5.10;;;12.60;99.90;;;;;;5079833;28;20225;-78
2021/10/15 01:39:33;;;;;;;7.05;5.05;;;12.60;99.90;;;;;;5079077;28;20162;-78
2021/10/15 01:41:59;;;;;;;7.43;5.13;;;12.50;99.90;;;;;;5080720;28;20167;-78
2021/10/15 01:44:24;;;;;;;8.50;5.65;;;12.40;99.90;;;;;;5078181;28;20298;-78
2021/10/15 01:46:50;;;;;;;8.98;5.35;;;12.30;99.90;;;;;;5078666;28;20214;-78
2021/10/15 01:49:16;;;;;;;6.55;5.95;;;12.20;99.90;;;;;;5077310;28;20229;-78
2021/10/15 01:51:41;;;;;;;10.38;4.65;;;12.30;99.90;;;;;;5077614;28;20167;-79
2021/10/15 01:54:07;;;;;;;6.63;4.65;;;12.40;99.90;;;;;;5078532;28;20249;-78
2021/10/15 01:56:34;;;;;;;15.98;5.00;;;12.40;99.90;;;;;;5078041;28;20208;-78
2021/10/15 01:59:00;;;;;;;10.25;4.85;;;12.40;99.90;;;;;;5077835;28;20201;-81
2021/10/15 02:01:26;;;;;;;7.28;4.95;;;12.40;99.90;;;;;;5078459;28;20198;-78
2021/10/15 02:03:52;;;;;;;8.35;5.85;;;12.40;99.90;;;;;;5079474;28;20642;-77
2021/10/15 02:06:19;;;;;;;13.50;5.50;;;12.40;99.90;;;;;;5080716;28;20188;-78
2021/10/15 02:08:45;;;;;;;8.40;5.78;;;12.50;99.90;;;;;;5080577;28;20716;-79
2021/10/15 02:11:10;;;;;;;8.07;4.38;;;12.40;99.90;;;;;;5079188;28;20167;-78
2021/10/15 02:13:36;;;;;;;7.18;5.35;;;12.40;99.90;;;;;;5075738;28;20212;-78
2021/10/15 02:16:02;;;;;;;8.05;5.68;;;12.30;99.90;;;;;;5077056;28;20163;-77
2021/10/15 02:18:27;;;;;;;5.72;5.05;;;12.40;99.90;;;;;;5077255;28;20190;-79
2021/10/15 02:20:53;;;;;;;8.23;4.93;;;12.50;99.90;;;;;;5077894;28;20163;-78
2021/10/15 02:23:19;;;;;;;7.18;4.93;;;12.40;99.90;;;;;;5078116;28;20174;-78
2021/10/15 02:25:44;;;;;;;19.60;5.22;;;12.50;99.90;;;;;;5077907;28;20732;-78
2021/10/15 02:28:10;;;;;;;9.82;5.28;;;12.50;99.90;;;;;;5080601;28;20281;-79
2021/10/15 02:30:37;;;;;;;6.30;5.70;;;12.60;99.90;;;;;;5078423;28;20217;-84
2021/10/15 02:33:02;;;;;;;7.80;6.10;;;12.70;99.90;;;;;;5079425;28;20166;-78
2021/10/15 02:35:29;;;;;;;6.80;5.30;;;12.70;99.90;;;;;;5078068;28;20167;-77
2021/10/15 02:37:57;;;;;;;11.93;5.38;;;12.80;99.90;;;;;;5078931;28;20630;-79
2021/10/15 02:40:23;;;;;;;7.10;6.00;;;12.70;99.90;;;;;;5077446;28;20162;-79
2021/10/15 02:42:48;;;;;;;8.88;5.57;;;12.60;99.90;;;;;;5077071;28;20173;-79
2021/10/15 02:45:14;;;;;;;7.25;5.55;;;12.50;99.90;;;;;;5077096;28;20591;-81
2021/10/15 02:47:40;;;;;;;10.43;5.47;;;12.60;99.90;;;;;;5076562;28;20710;-79
2021/10/15 02:50:07;;;;;;;8.77;6.22;;;12.50;99.90;;;;;;5080178;28;20243;-85
2021/10/15 02:52:32;;;;;;;10.43;5.70;;;12.60;99.90;;;;;;5082244;28;20163;-78
2021/10/15 02:54:58;;;;;;;6.63;5.28;;;12.50;99.90;;;;;;5077253;28;20182;-80
2021/10/15 02:57:24;;;;;;;10.13;5.70;;;12.50;99.90;;;;;;5076270;28;20548;-85
2021/10/15 02:59:50;;;;;;;7.53;5.97;;;12.60;99.90;;;;;;5076347;28;20185;-77
2021/10/15 03:02:16;;;;;;;8.45;6.35;;;12.80;99.90;;;;;;5076782;28;20167;-77
2021/10/15 03:04:42;;;;;;;13.50;6.75;;;12.70;99.90;;;;;;5077236;28;20220;-78
2021/10/15 03:07:08;;;;;;;8.50;5.55;;;12.80;99.90;;;;;;5075309;28;20217;-79
2021/10/15 03:09:34;;;;;;;10.77;5.43;;;12.70;99.90;;;;;;5075101;28;20241;-77
2021/10/15 03:11:59;;;;;;;8.45;5.93;;;12.90;99.90;;;;;;5075018;28;20162;-77
2021/10/15 03:14:25;;;;;;;12.93;6.15;;;12.80;99.90;;;;;;5075676;28;20687;-77
2021/10/15 03:16:50;;;;;;;8.70;6.10;;;12.90;99.90;;;;;;5075370;28;20524;-77
2021/10/15 03:19:16;;;;;;;10.45;6.35;;;12.80;99.90;;;;;;5075728;28;20209;-77
2021/10/15 03:21:42;;;;;;;9.63;6.15;;;12.70;99.90;;;;;;5074499;28;20166;-79
2021/10/15 03:24:08;;;;;;;7.15;5.63;;;12.60;99.90;;;;;;5077238;28;20263;-77
2021/10/15 03:26:34;;;;;;;8.35;6.30;;;12.70;99.90;;;;;;5078368;28;20563;-76
2021/10/15 03:28:59;;;;;;;9.85;5.65;;;12.80;99.90;;;;;;5077615;28;20740;-79
2021/10/15 03:31:25;;;;;;;9.27;5.63;;;13.00;99.90;;;;;;5077840;28;20693;-78
2021/10/15 03:33:51;;;;;;;7.88;5.38;;;12.90;99.90;;;;;;5076339;28;20535;-78
2021/10/15 03:36:16;;;;;;;9.88;5.07;;;13.00;99.90;;;;;;5077719;28;20212;-78
2021/10/15 03:38:42;;;;;;;8.77;5.30;;;12.80;99.90;;;;;;5076369;28;20186;-77
2021/10/15 03:41:07;;;;;;;8.52;5.38;;;12.90;99.90;;;;;;5076502;28;20177;-78
2021/10/15 03:43:33;;;;;;;7.90;5.72;;;12.80;99.90;;;;;;5078028;28;20228;-78
2021/10/15 03:45:59;;;;;;;14.50;5.68;;;12.80;99.90;;;;;;5075766;28;20664;-78
2021/10/15 03:48:24;;;;;;;6.97;5.45;;;12.80;99.90;;;;;;5075073;28;20218;-78
2021/10/15 03:50:50;;;;;;;13.02;5.13;;;12.80;99.90;;;;;;5074116;28;20536;-78
2021/10/15 03:53:16;;;;;;;10.20;5.22;;;12.80;99.90;;;;;;5075545;28;20178;-78
2021/10/15 03:55:43;;;;;;;13.25;5.07;;;12.90;99.90;;;;;;5076062;28;20162;-78
2021/10/15 03:58:08;;;;;;;8.20;5.32;;;12.90;99.90;;;;;;5075349;28;20189;-78
2021/10/15 04:00:34;;;;;;;15.30;6.13;;;12.90;99.90;;;;;;5075833;28;20159;-78
2021/10/15 04:02:59;;;;;;;11.68;5.85;;;12.90;99.90;;;;;;5075014;28;20197;-78
2021/10/15 04:05:25;;;;;;;12.48;5.60;;;13.10;99.90;;;;;;5075849;28;20170;-78
2021/10/15 04:07:51;;;;;;;6.05;4.63;;;13.10;99.90;;;;;;5078258;28;20236;-78
2021/10/15 04:10:17;;;;;;;6.47;5.25;;;12.90;99.90;;;;;;5077515;28;20229;-77
2021/10/15 04:12:42;;;;;;;8.27;5.50;;;12.90;99.90;;;;;;5078357;28;20611;-78
2021/10/15 04:15:09;;;;;;;9.07;5.43;;;12.80;99.90;;;;;;5077521;28;20198;-77
2021/10/15 04:17:35;;;;;;;14.23;5.47;;;12.90;99.90;;;;;;5074968;28;20190;-78
2021/10/15 04:20:01;;;;;;;6.60;5.20;;;12.90;99.90;;;;;;5076318;28;20190;-77
2021/10/15 04:22:26;;;;;;;10.32;5.25;;;13.10;99.90;;;;;;5073207;28;20167;-77
2021/10/15 04:24:53;;;;;;;5.28;4.78;;;12.90;99.90;;;;;;5073300;28;20166;-77
2021/10/15 04:27:19;;;;;;;10.63;5.38;;;13.10;99.90;;;;;;5073962;28;20190;-77
2021/10/15 04:29:44;;;;;;;17.42;5.65;;;13.10;99.90;;;;;;5073170;28;20213;-77
2021/10/15 04:32:10;;;;;;;9.63;5.70;;;13.10;99.90;;;;;;5072981;28;20166;-78
2021/10/15 04:34:36;;;;;;;6.28;5.03;;;13.10;99.90;;;;;;5072983;28;20619;-77
2021/10/15 04:37:02;;;;;;;15.00;5.70;;;13.20;99.90;;;;;;5072665;28;20247;-77
2021/10/15 04:39:27;;;;;;;5.50;4.97;;;13.20;99.90;;;;;;5072988;28;20170;-77
2021/10/15 04:41:53;;;;;;;8.15;4.70;;;13.30;99.90;;;;;;5075318;28;20232;-78
2021/10/15 04:44:18;;;;;;;7.07;5.57;;;13.40;99.90;;;;;;5075794;28;20170;-77
2021/10/15 04:46:44;;;;;;;5.75;5.25;;;13.30;99.90;;;;;;5076459;28;20202;-77
2021/10/15 04:49:10;;;;;;;7.97;5.53;;;13.20;99.90;;;;;;5072469;28;20202;-77
2021/10/15 04:51:35;;;;;;;6.28;5.20;;;13.20;99.90;;;;;;5072859;28;20171;-77
2021/10/15 04:54:01;;;;;;;7.10;5.18;;;13.20;99.90;;;;;;5074804;28;20173;-77
2021/10/15 04:56:27;;;;;;;8.77;5.53;;;13.10;99.90;;;;;;5071750;28;20208;-76
2021/10/15 04:58:52;;;;;;;10.25;4.60;;;13.10;99.90;;;;;;5074735;28;20197;-77
2021/10/15 05:01:18;;;;;;;8.13;5.10;;;13.20;99.90;;;;;;5072211;28;20162;-77
2021/10/15 05:03:43;;;;;;;5.90;4.80;;;13.20;99.90;;;;;;5071913;28;20197;-77
2021/10/15 05:06:09;;;;;;;6.40;4.97;;;13.30;99.90;;;;;;5072671;28;20171;-77
2021/10/15 05:08:49;;;;;;;7.10;5.38;;;13.40;99.90;;;;;;5072215;28;20213;-77
2021/10/15 05:11:15;;;;;;;11.65;5.93;;;13.20;99.90;;;;;;5071768;28;20166;-77
2021/10/15 05:13:41;;;;;;;6.05;4.95;;;13.00;99.90;;;;;;5072287;28;20277;-76
2021/10/15 05:16:06;;;;;;;11.00;6.63;;;12.90;99.90;;;;;;5072188;28;20177;-77
2021/10/15 05:18:32;;;;;;;5.82;4.88;;;13.00;99.90;;;;;;5071941;28;20182;-77
2021/10/15 05:20:58;;;;;;;6.43;5.18;;;13.00;99.90;;;;;;5072437;28;20506;-77
2021/10/15 05:23:23;;;;;;;13.88;5.47;;;13.00;99.90;;;;;;5073958;28;20173;-78
2021/10/15 05:25:49;;;;;;;5.72;5.13;;;13.00;99.90;;;;;;5075540;28;20171;-77
2021/10/15 05:28:15;;;;;;;5.05;4.40;;;13.10;99.90;;;;;;5074538;28;20282;-77
2021/10/15 05:30:41;;;;;;;6.90;4.53;;;13.10;99.90;;;;;;5075618;28;20190;-79
2021/10/15 05:33:07;;;;;;;6.82;4.68;;;13.00;99.90;;;;;;5074543;28;20166;-77
2021/10/15 05:35:33;;;;;;;7.80;5.20;;;13.10;99.90;;;;;;5075346;28;20158;-77
2021/10/15 05:37:59;;;;;;;14.43;5.20;;;13.20;99.90;;;;;;5074325;28;20681;-78
2021/10/15 05:40:25;;;;;;;14.45;6.03;;;13.20;99.90;;;;;;5075247;28;20205;-78
2021/10/15 05:42:51;;;;;;;6.70;4.72;;;13.30;99.90;;;;;;5074115;28;20159;-80
2021/10/15 05:45:17;;;;;;;10.05;5.50;;;13.30;99.90;;;;;;5073720;28;20167;-77
2021/10/15 05:47:43;;;;;;;9.43;4.72;;;13.40;99.90;;;;;;5072747;28;20209;-77
2021/10/15 05:50:10;;;;;;;10.40;4.57;;;13.30;99.90;;;;;;5072830;28;20206;-77
2021/10/15 05:52:42;;;;;;;22.02;5.70;;;13.40;99.90;;;;;;5072827;28;20626;-77
2021/10/15 05:55:26;;;;;;;10.98;7.05;;;13.40;99.90;;;;;;5073798;28;20159;-77
2021/10/15 06:00:27;;;;;;;13.32;5.32;;;13.50;99.90;;;;;;5074295;28;20605;-77
2021/10/15 06:02:54;;;;;;;13.50;5.88;;;13.40;99.90;;;;;;5075556;28;20212;-81
2021/10/15 06:16:19;;;;;;;10.82;6.55;;;13.30;99.90;;;;;;5074936;28;20570;-77
2021/10/15 06:21:40;;;;;;;11.68;6.72;;;13.40;99.90;;;;;;5070008;28;20194;-77
2021/10/15 06:24:06;;;;;;;6.72;6.00;;;13.30;99.90;;;;;;5074610;28;20169;-77
2021/10/15 06:26:31;;;;;;;9.38;6.15;;;13.30;99.90;;;;;;5074832;28;20171;-77
2021/10/15 06:28:57;;;;;;;15.93;7.32;;;13.40;99.90;;;;;;5074179;28;20206;-78
2021/10/15 06:31:23;;;;;;;15.27;7.05;;;13.30;99.90;;;;;;5074108;28;20301;-77
2021/10/15 06:33:48;;;;;;;11.25;5.68;;;13.10;99.90;;;;;;5072580;28;20178;-77
2021/10/15 06:36:14;;;;;;;8.65;6.95;;;13.20;99.90;;;;;;5074189;28;20182;-78
2021/10/15 06:38:39;;;;;;;15.80;6.72;;;13.00;99.90;;;;;;5074332;28;20213;-77
2021/10/15 06:41:05;;;;;;;9.02;6.35;;;13.10;99.90;;;;;;5074568;28;20589;-78
2021/10/15 06:43:31;;;;;;;12.82;7.10;;;13.10;99.90;;;;;;5073621;28;20201;-77
2021/10/15 06:45:57;;;;;;;8.25;6.15;;;13.10;99.90;;;;;;5077371;28;20193;-78
2021/10/15 06:48:22;;;;;;;17.83;6.75;;;13.20;99.90;;;;;;5074874;28;20224;-77
2021/10/15 06:50:48;;;;;;;16.33;6.22;;;13.20;99.90;;;;;;5074493;28;20627;-77
2021/10/15 06:53:14;;;;;;;10.77;6.10;;;13.10;99.90;;;;;;5074803;28;20158;-78
2021/10/15 06:55:40;;;;;;;10.65;6.47;;;13.20;99.90;;;;;;5074533;28;20175;-77
2021/10/15 06:58:06;;;;;;;9.50;6.75;;;13.30;99.90;;;;;;5075842;28;20728;-77
2021/10/15 07:00:32;;;;;;;19.85;6.45;;;13.30;99.90;;;;;;5074271;28;20182;-77
2021/10/15 07:02:58;;;;;;;18.17;6.25;;;13.40;99.90;;;;;;5074582;28;20171;-77
2021/10/15 07:05:27;;;;;;;12.38;6.03;;;13.50;99.90;;;;;;5074474;28;20174;-77
2021/10/15 07:07:52;;;;;;;8.35;6.88;;;13.70;99.90;;;;;;5074699;28;20643;-77
2021/10/15 07:10:18;;;;;;;8.88;7.10;;;13.70;99.90;;;;;;5074153;28;20213;-77
2021/10/15 07:12:45;;;;;;;16.27;6.90;;;13.70;99.90;;;;;;5074680;28;20301;-78
2021/10/15 07:15:14;;;;;;;9.13;7.22;;;13.60;99.90;;;;;;5074738;28;20158;-78
2021/10/15 07:17:40;;;;;;;7.85;7.07;;;13.60;99.90;;;;;;5073385;28;20178;-78
2021/10/15 07:20:08;;;;;;;16.10;6.85;;;13.60;99.90;;;;;;5073534;28;20198;-78
2021/10/15 07:22:34;;;;;;;10.13;6.15;;;13.50;99.90;;;;;;5073520;28;20166;-78
2021/10/15 07:24:59;;;;;;;12.50;7.10;;;13.60;99.90;;;;;;5073270;28;20170;-78
2021/10/15 07:27:25;;;;;;;20.08;7.32;;;13.60;99.90;;;;;;5074025;28;20217;-77
2021/10/15 07:29:51;;;;;;;20.27;7.10;;;13.60;99.90;;;;;;5073799;28;20206;-78
2021/10/15 07:32:17;;;;;;;13.85;7.70;;;13.50;99.90;;;;;;5073616;28;20162;-78
2021/10/15 07:34:42;;;;;;;21.73;7.65;;;13.70;99.90;;;;;;5072538;28;20577;-77
2021/10/15 07:37:08;;;;;;;10.45;8.05;;;13.90;99.90;;;;;;5073199;28;20285;-77
2021/10/15 07:39:34;;;;;;;9.23;6.85;;;14.10;99.90;;;;;;5071512;28;20202;-78
2021/10/15 07:42:00;;;;;;;9.02;6.68;;;14.10;99.90;;;;;;5073510;28;20158;-77
2021/10/15 07:44:28;;;;;;;14.35;7.82;;;14.00;99.90;;;;;;5074639;28;20558;-77
2021/10/15 07:46:53;;;;;;;13.80;7.32;;;14.00;99.90;;;;;;5075253;28;20526;-78
2021/10/15 07:49:19;;;;;;;14.52;6.90;;;13.90;99.90;;;;;;5075018;28;20206;-78
2021/10/15 07:51:45;;;;;;;13.40;6.70;;;13.90;99.90;;;;;;5075297;28;20169;-77
2021/10/15 07:54:11;;;;;;;10.57;7.22;;;14.10;99.90;;;;;;5073883;28;20182;-78
2021/10/15 07:56:37;;;;;;;6.30;5.72;;;14.00;99.90;;;;;;5071786;28;20163;-83
2021/10/15 07:59:02;;;;;;;14.63;6.72;;;14.20;99.90;;;;;;5072480;28;20600;-78
2021/10/15 08:01:28;;;;;;;19.15;6.68;;;14.30;99.90;;;;;;5073126;28;20627;-78
2021/10/15 08:03:54;;;;;;;11.90;7.20;;;14.50;99.90;;;;;;5073215;28;20500;-78
2021/10/15 08:06:20;;;;;;;21.67;7.55;;;14.50;99.90;;;;;;5074536;28;20159;-78
2021/10/15 08:08:46;;;;;;;19.23;6.55;;;14.50;99.90;;;;;;5073450;28;20214;-78
2021/10/15 08:11:12;;;;;;;17.85;6.38;;;14.60;99.90;;;;;;5072976;28;20155;-77
2021/10/15 08:13:38;;;;;;;10.70;6.53;;;14.70;99.90;;;;;;5073856;28;20182;-78
2021/10/15 08:16:05;;;;;;;9.35;6.55;;;14.60;99.90;;;;;;5072606;28;20619;-78
2021/10/15 08:18:30;;;;;;;12.20;7.40;;;14.70;99.90;;;;;;5073229;28;20270;-78
2021/10/15 08:20:57;;;;;;;12.85;7.15;;;14.90;99.90;;;;;;5072500;28;20682;-77
2021/10/15 08:23:25;;;;;;;13.63;7.63;;;14.90;99.90;;;;;;5072708;28;20173;-78
2021/10/15 08:25:50;;;;;;;11.23;6.78;;;14.70;99.90;;;;;;5072122;28;20169;-78
2021/10/15 08:28:16;;;;;;;13.15;6.70;;;14.90;99.90;;;;;;5072735;28;20194;-78
2021/10/15 08:30:42;;;;;;;10.00;7.05;;;14.90;99.90;;;;;;5072408;28;20191;-78
2021/10/15 08:33:08;;;;;;;20.08;7.53;;;14.90;99.90;;;;;;5072436;28;20163;-78
2021/10/15 08:35:33;;;;;;;9.75;6.63;;;14.90;99.90;;;;;;5072189;28;20631;-78
2021/10/15 08:37:59;;;;;;;9.82;6.95;;;15.00;99.90;;;;;;5072862;28;20228;-85
2021/10/15 08:40:27;;;;;;;12.40;6.93;;;15.10;99.90;;;;;;5073097;28;20204;-78
2021/10/15 08:42:56;;;;;;;8.48;6.68;;;15.00;99.90;;;;;;5085173;28;20138;-88
2021/10/15 08:45:34;;;;;;;11.00;6.93;;;15.00;99.90;;;;;;5089356;28;20154;-83
2021/10/15 08:48:01;;;;;;;11.57;6.60;;;14.80;99.90;;;;;;5092571;28;20194;-81
2021/10/15 08:50:26;;;;;;;11.60;7.03;;;14.70;99.90;;;;;;5090601;28;20239;-87
2021/10/15 08:52:52;;;;;;;8.23;6.78;;;14.60;99.90;;;;;;5077496;28;20163;-88
2021/10/15 08:55:19;;;;;;;18.08;6.80;;;14.80;99.90;;;;;;5076955;28;20163;-91
2021/10/15 08:57:49;;;;;;;17.02;7.65;;;14.70;99.90;;;;;;5075193;28;20183;-92
2021/10/15 09:00:34;;;;;;;8.52;7.00;;;14.80;99.90;;;;;;5074507;28;20166;-83
2021/10/15 09:03:12;;;;;;;18.60;7.13;;;14.80;99.90;;;;;;5072735;28;20163;-84
2021/10/15 09:05:41;;;;;;;10.75;7.70;;;14.70;99.90;;;;;;5073507;28;20169;-85
2021/10/15 09:08:07;;;;;;;8.63;7.45;;;14.90;99.90;;;;;;5072729;28;20186;-86
2021/10/15 09:10:34;;;;;;;13.25;7.65;;;15.10;99.90;;;;;;5075850;28;20170;-85
2021/10/15 09:13:17;;;;;;;10.95;7.28;;;15.40;99.90;;;;;;5073790;28;20171;-87
2021/10/15 09:15:44;;;;;;;9.35;7.10;;;15.30;99.90;;;;;;5074057;28;20170;-86
2021/10/15 09:18:13;;;;;;;10.93;7.10;;;15.30;99.90;;;;;;5075711;28;20532;-87
2021/10/15 09:20:39;;;;;;;11.15;6.60;;;15.30;99.90;;;;;;5074447;28;20616;-86
2021/10/15 09:23:05;;;;;;;14.30;7.35;;;15.20;99.90;;;;;;5074714;28;20162;-94
2021/10/15 09:25:35;;;;;;;11.07;7.55;;;15.40;99.90;;;;;;5078864;28;20527;-82
2021/10/15 09:28:01;;;;;;;8.82;7.05;;;15.50;99.90;;;;;;5077661;28;20187;-77
2021/10/15 09:30:29;;;;;;;9.02;6.65;;;15.40;99.90;;;;;;5072292;28;20198;-78
2021/10/15 09:32:56;;;;;;;10.77;7.57;;;15.40;99.90;;;;;;5071953;28;20575;-77
2021/10/15 09:35:28;;;;;;;9.00;6.85;;;15.50;99.90;;;;;;5070128;28;20177;-77
2021/10/15 09:38:02;;;;;;;15.55;7.05;;;15.20;99.90;;;;;;5075959;28;20186;-82
2021/10/15 09:40:48;;;;;;;9.70;7.35;;;15.20;99.90;;;;;;5077459;28;20566;-79
2021/10/15 09:43:15;;;;;;;14.25;7.85;;;15.30;99.90;;;;;;5076049;28;20631;-78
2021/10/15 09:45:45;;;;;;;16.10;8.52;;;15.40;99.90;;;;;;5077151;28;20174;-79
2021/10/15 09:48:26;;;;;;;18.17;8.02;;;15.40;99.90;;;;;;5077843;28;20186;-87
2021/10/15 09:51:19;;;;;;;12.27;10.98;;;15.20;99.90;;;;;;5075291;28;20205;-83
2021/10/15 09:54:08;;;;;;;16.70;9.57;;;15.00;99.90;;;;;;5075414;28;20201;-91
2021/10/15 09:56:41;;;;;;;18.42;10.73;;;15.10;99.90;;;;;;5075698;28;20159;-79
2021/10/15 09:59:07;;;;;;;11.85;10.43;;;14.80;99.90;;;;;;5075469;28;20162;-78
2021/10/15 10:01:36;;;;;;;19.77;12.13;;;14.60;99.90;;;;;;5075200;28;20702;-81
2021/10/15 10:04:06;;;;;;;16.10;10.52;;;14.60;99.90;;;;;;5075178;28;20261;-79
2021/10/15 10:06:32;;;;;;;20.45;10.85;;;14.40;99.90;;;;;;5073807;28;20198;-81
2021/10/15 10:08:59;;;;;;;18.52;9.07;;;14.30;99.90;;;;;;5075495;28;20198;-79
2021/10/15 10:11:26;;;;;;;15.52;8.43;;;14.20;99.90;;;;;;5074893;28;20242;-79
2021/10/15 10:13:52;;;;;;;10.43;8.27;;;14.20;99.90;;;;;;5074810;28;20197;-79
2021/10/15 10:16:20;;;;;;;11.38;8.40;;;14.10;99.90;;;;;;5074342;28;20170;-79
2021/10/15 10:18:46;;;;;;;11.77;9.50;;;14.20;99.90;;;;;;5074685;28;20244;-78
2021/10/15 10:21:22;;;;;;;25.27;10.38;;;14.30;99.90;;;;;;5074537;28;20194;-78
2021/10/15 10:24:12;;;;;;;17.88;9.65;;;14.30;99.90;;;;;;5074982;28;20243;-78
2021/10/15 10:26:44;;;;;;;11.50;9.98;;;14.40;99.90;;;;;;5074743;28;20170;-79
2021/10/15 10:29:10;;;;;;;14.20;10.48;;;14.40;99.90;;;;;;5074697;28;20558;-80
2021/10/15 10:31:36;;;;;;;10.15;7.82;;;14.40;99.90;;;;;;5074733;28;20253;-79
2021/10/15 10:34:04;;;;;;;10.63;5.88;;;14.40;99.90;;;;;;5074282;28;20162;-79
2021/10/15 10:36:32;;;;;;;7.28;5.15;;;14.30;99.90;;;;;;5074544;28;20171;-78
2021/10/15 10:39:19;;;;;;;6.95;4.47;;;14.30;99.90;;;;;;5073536;28;20198;-80
2021/10/15 10:42:08;;;;;;;9.27;3.22;;;14.10;99.90;;;;;;5063861;28;20202;-79
2021/10/15 10:44:37;;;;;;;8.48;3.72;;;14.00;99.90;;;;;;5066900;28;20186;-78
2021/10/15 10:47:17;;;;;;;4.82;3.25;;;14.20;99.90;;;;;;5072745;28;21000;-78
2021/10/15 10:50:04;;;;;;;6.78;2.30;;;14.00;99.90;;;;;;5073372;28;20208;-78
2021/10/15 10:52:34;;;;;;;4.18;1.90;;;13.90;99.90;;;;;;5073845;28;20619;-80
2021/10/15 10:55:01;;;;;;;8.18;2.40;;;13.80;99.90;;;;;;5072216;28;20170;-87
2021/10/15 10:57:30;;;;;;;3.72;2.28;;;13.70;99.90;;;;;;5074073;28;20716;-78
2021/10/15 11:00:18;;;;;;;9.18;2.55;;;13.70;99.90;;;;;;5074378;28;20495;-77
2021/10/15 11:02:46;;;;;;;3.45;1.70;;;13.70;99.90;;;;;;5073408;28;20249;-77
2021/10/15 11:05:12;;;;;;;6.32;1.70;;;13.80;99.90;;;;;;5074322;28;20564;-77
2021/10/15 11:07:39;;;;;;;9.63;2.00;;;13.90;99.90;;;;;;5073736;28;20186;-77
2021/10/15 11:10:19;;;;;;;6.75;2.92;;;13.70;99.90;;;;;;5073522;28;20205;-78
2021/10/15 11:12:45;;;;;;;8.80;1.90;;;13.70;99.90;;;;;;5074108;28;20220;-78
2021/10/15 11:15:12;;;;;;;3.92;1.95;;;13.60;99.90;;;;;;5073917;28;20653;-77
2021/10/15 11:17:41;;;;;;;5.13;2.30;;;13.80;99.90;;;;;;5073375;28;20182;-77
2021/10/15 11:20:20;;;;;;;2.03;1.50;;;14.10;99.90;;;;;;5072767;28;20261;-77
2021/10/15 11:22:54;;;;;;;6.45;1.83;;;14.40;99.90;;;;;;5073961;28;20167;-78
2021/10/15 11:25:22;;;;;;;8.13;2.08;;;14.60;99.90;;;;;;5074093;28;20603;-77
2021/10/15 11:27:52;;;;;;;5.53;1.27;;;14.90;99.90;;;;;;5073581;28;20273;-77
2021/10/15 11:30:20;;;;;;;1.95;1.65;;;14.90;99.90;;;;;;5073714;28;20650;-77
2021/10/15 11:32:48;;;;;;;3.88;1.70;;;14.90;99.90;;;;;;5072423;28;20522;-78
2021/10/15 11:35:29;;;;;;;1.40;1.30;;;14.90;99.90;;;;;;5073430;28;20606;-78
2021/10/15 11:38:07;;;;;;;5.60;1.65;;;14.70;99.90;;;;;;5072719;28;20527;-78
2021/10/15 11:40:42;;;;;;;2.63;1.42;;;14.90;99.90;;;;;;5073834;28;20166;-81
2021/10/15 11:43:29;;;;;;;1.92;0.85;;;15.00;99.90;;;;;;5073689;28;20154;-86
2021/10/15 11:46:02;;;;;;;6.80;1.77;;;15.10;99.90;;;;;;5073823;28;20166;-77
2021/10/15 11:48:30;;;;;;;2.08;0.90;;;15.10;99.90;;;;;;5073424;28;20186;-77
2021/10/15 11:51:02;;;;;;;2.72;0.82;;;15.40;99.90;;;;;;5073497;28;20175;-78
2021/10/15 11:53:32;;;;;;;3.85;1.30;;;15.40;99.90;;;;;;5073105;28;20523;-78
2021/10/15 11:55:59;;;;;;;3.38;0.90;;;15.50;99.90;;;;;;5073251;28;20171;-78
2021/10/15 11:58:32;;;;;;;4.22;0.90;;;15.60;99.90;;;;;;5072329;28;20187;-78
2021/10/15 12:01:05;;;;;;;3.05;0.80;;;15.70;99.90;;;;;;5071650;28;20182;-78
2021/10/15 12:03:33;;;;;;;4.05;1.25;;;15.90;99.90;;;;;;5072806;28;20174;-77
2021/10/15 12:06:19;;;;;;;2.80;1.27;;;16.10;99.90;;;;;;5072818;28;20166;-78
2021/10/15 12:08:47;;;;;;;4.45;1.08;;;16.40;99.90;;;;;;5062046;28;20244;-77
2021/10/15 12:11:30;;;;;;;3.70;0.95;;;16.50;99.90;;;;;;5071591;28;20582;-77
2021/10/15 12:13:56;;;;;;;3.72;0.85;;;16.50;99.90;;;;;;5071777;28;20170;-78
2021/10/15 12:16:26;;;;;;;2.25;1.17;;;16.50;99.90;;;;;;5072671;28;20171;-86
2021/10/15 12:19:06;;;;;;;2.85;1.08;;;16.60;99.90;;;;;;5073545;28;20183;-87
2021/10/15 12:21:45;;;;;;;7.55;0.95;;;16.60;99.90;;;;;;5073611;28;20196;-81
2021/10/15 12:24:24;;;;;;;3.28;1.27;;;16.50;99.90;;;;;;5073468;28;20646;-87
2021/10/15 12:27:26;;;;;;;2.15;1.10;;;16.60;99.90;;;;;;5073343;28;20634;-80
2021/10/15 12:29:54;;;;;;;2.42;0.65;;;16.70;99.90;;;;;;5041544;28;20317;-86
2021/10/15 12:32:28;;;;;;;1.63;0.75;;;16.80;99.90;;;;;;5072953;28;20237;-78
2021/10/15 12:35:20;;;;;;;3.38;0.82;;;16.90;99.90;;;;;;5071110;28;20240;-78
2021/10/15 12:37:49;;;;;;;2.97;0.70;;;17.10;99.90;;;;;;5072051;28;20507;-78
2021/10/15 12:40:38;;;;;;;2.28;0.90;;;17.30;99.90;;;;;;5072321;28;20197;-78
2021/10/15 12:43:09;;;;;;;8.50;1.00;;;17.40;99.90;;;;;;5072634;28;20627;-78
2021/10/15 12:45:42;;;;;;;6.22;0.98;;;17.60;99.90;;;;;;5071751;28;20265;-83
2021/10/15 12:48:17;;;;;;;8.63;1.67;;;17.70;99.90;;;;;;5071313;28;20554;-85
2021/10/15 12:51:10;;;;;;;3.45;0.93;;;17.60;99.90;;;;;;5073264;28;20182;-89
2021/10/15 12:53:41;;;;;;;2.95;1.10;;;17.50;99.90;;;;;;5073265;28;20611;-79
2021/10/15 12:56:22;;;;;;;4.95;1.50;;;17.30;99.90;;;;;;5072890;28;20204;-82
2021/10/15 12:58:56;;;;;;;3.22;0.98;;;17.30;99.90;;;;;;5073400;28;20178;-87
2021/10/15 13:01:30;;;;;;;3.05;1.63;;;17.00;99.90;;;;;;5072919;28;20259;-83
2021/10/15 13:03:57;;;;;;;7.60;1.40;;;17.00;99.90;;;;;;5073111;28;20184;-88
2021/10/15 13:06:24;;;;;;;6.80;1.30;;;17.10;99.90;;;;;;5072681;28;20240;-81